Time;durP1;ratioP1;P1;durP2;ratioP2;P2;SDS_P1;SDS_P2;PMS_P1;PMS_P2;Temp;Humidity;BMP_temperature;BMP_pressure;BME280_temperature;BME280_humidity;BME280_pressure;Samples;Min_cycle;Max_cycle;Signal;HPM_P1;HPM_P2
2021/06/22 00:02:19;;;;;;;14.18;6.80;;;;;;;22.67;100.00;100379.43;1669369;84;20999;-38
2021/06/22 00:04:45;;;;;;;14.10;7.20;;;;;;;22.68;100.00;100379.78;1665111;84;21019;-39
2021/06/22 00:07:14;;;;;;;13.45;6.42;;;;;;;22.69;100.00;100381.47;1665684;84;20991;-40
2021/06/22 00:09:42;;;;;;;15.23;6.78;;;;;;;22.69;100.00;100382.83;1643265;84;21126;-39
2021/06/22 00:12:10;;;;;;;20.30;6.33;;;;;;;22.69;100.00;100382.83;1664393;84;20999;-39
2021/06/22 00:14:38;;;;;;;16.90;7.12;;;;;;;22.71;100.00;100383.19;1673625;84;21442;-39
2021/06/22 00:17:06;;;;;;;12.20;6.97;;;;;;;22.71;100.00;100386.75;1673714;84;20979;-43
2021/06/22 00:19:33;;;;;;;21.37;7.92;;;;;;;22.71;100.00;100385.39;1666880;84;21024;-41
2021/06/22 00:22:00;;;;;;;24.43;8.33;;;;;;;22.67;100.00;100384.86;1671659;84;21011;-42
2021/06/22 00:24:26;;;;;;;28.77;8.65;;;;;;;22.65;100.00;100386.93;1668089;84;20968;-42
2021/06/22 00:26:53;;;;;;;24.70;8.33;;;;;;;22.63;100.00;100377.25;1663468;84;21335;-42
2021/06/22 00:29:22;;;;;;;32.53;11.15;;;;;;;22.59;100.00;100371.29;1669223;84;21037;-41
2021/06/22 00:31:50;;;;;;;28.87;8.68;;;;;;;22.56;100.00;100372.16;1698459;82;21012;-43
2021/06/22 00:34:16;;;;;;;29.90;10.08;;;;;;;22.52;100.00;100375.70;1703743;82;20949;-45
2021/06/22 00:36:43;;;;;;;36.75;9.33;;;;;;;22.53;100.00;100381.49;1702752;82;20940;-43
2021/06/22 00:39:10;;;;;;;28.73;8.60;;;;;;;22.53;100.00;100380.13;1705853;82;20996;-42
2021/06/22 00:41:36;;;;;;;41.73;9.45;;;;;;;22.51;100.00;100380.81;1701252;83;21006;-44
2021/06/22 00:44:07;;;;;;;43.70;10.10;;;;;;;22.50;100.00;100383.68;1704511;82;21415;-43
2021/06/22 00:46:34;;;;;;;25.92;8.53;;;;;;;22.48;100.00;100374.36;1704963;82;20953;-43
2021/06/22 00:49:03;;;;;;;32.40;9.68;;;;;;;22.47;100.00;100378.92;1706699;82;20977;-42
2021/06/22 00:51:31;;;;;;;23.65;7.85;;;;;;;22.46;100.00;100371.80;1681043;82;20954;-46
2021/06/22 00:53:58;;;;;;;31.52;9.83;;;;;;;22.44;100.00;100364.33;1699832;82;21047;-47
2021/06/22 00:56:30;;;;;;;30.72;9.28;;;;;;;22.45;100.00;100364.69;1665821;83;20940;-46
2021/06/22 00:58:56;;;;;;;24.90;8.48;;;;;;;22.42;100.00;100359.57;1705417;82;21510;-42
2021/06/22 01:01:23;;;;;;;23.40;7.47;;;;;;;22.41;100.00;100354.33;1681300;83;20953;-41
2021/06/22 01:03:50;;;;;;;25.68;6.72;;;;;;;22.42;100.00;100351.94;1699196;82;21495;-42
2021/06/22 01:06:17;;;;;;;32.48;9.23;;;;;;;22.43;100.00;100350.42;1700684;82;20948;-40
2021/06/22 01:08:46;;;;;;;41.20;9.38;;;;;;;22.43;100.00;100346.86;1704479;82;21045;-40
2021/06/22 01:11:14;;;;;;;39.45;10.25;;;;;;;22.34;100.00;100342.44;1706313;82;21504;-40
2021/06/22 01:13:42;;;;;;;35.80;9.60;;;;;;;22.24;100.00;100329.86;1681420;83;21661;-40
2021/06/22 01:16:24;;;;;;;38.02;9.40;;;;;;;22.17;100.00;100334.75;1696594;82;20996;-41
2021/06/22 01:19:01;;;;;;;47.70;11.83;;;;;;;22.11;100.00;100336.79;1703100;82;21024;-41
2021/06/22 01:21:31;;;;;;;38.83;11.55;;;;;;;22.08;100.00;100328.98;1647875;85;21031;-45
2021/06/22 01:24:08;;;;;;;40.48;10.88;;;;;;;22.04;100.00;100335.25;1643140;86;21028;-44
2021/06/22 01:26:36;;;;;;;33.35;11.20;;;;;;;22.04;100.00;100335.25;1647079;86;21035;-45
2021/06/22 01:29:06;;;;;;;31.77;9.65;;;;;;;22.05;100.00;100338.32;1699280;82;20980;-46
2021/06/22 01:31:34;;;;;;;;;;;;;;;22.07;100.00;100340.84;1704135;82;20934;-46
2021/06/22 01:34:01;;;;;;;37.33;10.40;;;;;;;22.04;100.00;100337.96;1703304;82;20105;-45
2021/06/22 01:36:30;;;;;;;34.78;9.85;;;;;;;22.00;100.00;100336.10;1698858;82;20958;-45
2021/06/22 01:38:57;;;;;;;27.73;9.90;;;;;;;21.94;100.00;100342.18;1701649;82;21514;-47
2021/06/22 01:41:24;;;;;;;25.65;8.40;;;;;;;21.93;100.00;100346.44;1704653;83;20932;-46
2021/06/22 01:43:52;;;;;;;35.40;9.55;;;;;;;21.92;100.00;100334.70;1700658;82;20952;-41
2021/06/22 01:46:19;;;;;;;30.15;10.70;;;;;;;21.92;100.00;100333.86;1701997;82;20952;-42
2021/06/22 01:48:47;;;;;;;25.17;7.30;;;;;;;21.91;100.00;100330.82;1699898;82;20941;-41
2021/06/22 01:51:13;;;;;;;36.35;9.80;;;;;;;21.95;100.00;100327.61;1700694;82;20924;-41
2021/06/22 01:53:40;;;;;;;26.70;8.65;;;;;;;21.97;100.00;100329.66;1702136;82;21963;-45
2021/06/22 01:56:11;;;;;;;29.70;9.90;;;;;;;22.01;100.00;100335.08;1703056;82;20988;-45
2021/06/22 01:58:39;;;;;;;30.62;8.03;;;;;;;22.06;100.00;100337.29;1699693;82;20996;-43
2021/06/22 02:01:07;;;;;;;32.13;6.87;;;;;;;22.09;100.00;100336.11;1701976;82;20964;-42
2021/06/22 02:03:44;;;;;;;37.73;9.60;;;;;;;22.11;100.00;100334.08;1705185;82;20968;-43
2021/06/22 02:06:11;;;;;;;32.48;10.78;;;;;;;22.07;100.00;100336.77;1695200;82;22060;-42
2021/06/22 02:08:40;;;;;;;32.15;10.28;;;;;;;22.02;100.00;100340.86;1695071;82;21497;-42
2021/06/22 02:11:07;;;;;;;44.88;9.40;;;;;;;22.00;100.00;100342.05;1699232;82;21127;-42
2021/06/22 02:13:35;;;;;;;36.88;10.98;;;;;;;21.97;100.00;100345.94;1698141;82;20996;-40
2021/06/22 02:16:06;;;;;;;48.55;11.00;;;;;;;21.97;100.00;100343.23;1699379;82;21013;-43
2021/06/22 02:18:33;;;;;;;38.92;10.23;;;;;;;21.96;100.00;100335.23;1701802;82;21000;-39
2021/06/22 02:21:01;;;;;;;39.92;11.85;;;;;;;21.95;100.00;100333.55;1698660;82;21943;-44
2021/06/22 02:23:28;;;;;;;45.70;10.40;;;;;;;21.94;100.00;100328.61;1701153;82;20977;-45
2021/06/22 02:25:55;;;;;;;43.73;10.43;;;;;;;21.94;100.00;100325.05;1668511;84;20937;-46
2021/06/22 02:28:22;;;;;;;43.20;11.63;;;;;;;21.92;100.00;100323.01;1663786;84;20959;-45
2021/06/22 02:30:53;;;;;;;47.00;13.43;;;;;;;21.91;100.00;100318.61;1666221;84;21007;-43
2021/06/22 02:33:20;;;;;;;51.75;12.88;;;;;;;21.87;100.00;100319.43;1703549;82;20976;-47
2021/06/22 02:35:48;;;;;;;57.78;12.50;;;;;;;21.80;100.00;100321.98;1667823;83;20977;-47
2021/06/22 02:38:16;;;;;;;39.63;10.78;;;;;;;21.79;100.00;100330.28;1707500;82;21011;-45
2021/06/22 02:40:46;;;;;;;79.70;43.73;;;;;;;21.77;100.00;100332.30;1710776;82;21003;-40
2021/06/22 02:43:14;;;;;;;67.42;19.37;;;;;;;21.78;100.00;100322.66;1710011;82;20944;-45
2021/06/22 02:45:42;;;;;;;42.38;12.85;;;;;;;21.79;100.00;100321.63;1713805;82;21447;-42
2021/06/22 02:48:11;;;;;;;51.50;12.28;;;;;;;21.79;100.00;100316.71;1709473;82;21047;-42
2021/06/22 02:50:39;;;;;;;46.63;11.10;;;;;;;21.77;100.00;100307.41;1712338;82;20947;-41
2021/06/22 02:53:08;;;;;;;46.58;12.55;;;;;;;21.75;100.00;100312.14;1683830;83;20983;-42
2021/06/22 02:55:36;;;;;;;54.67;10.63;;;;;;;21.73;100.00;100306.02;1714826;83;21502;-44
2021/06/22 02:58:06;;;;;;;45.25;12.20;;;;;;;21.73;100.00;100313.32;1716649;82;21015;-43
2021/06/22 03:00:34;;;;;;;45.58;12.30;;;;;;;21.71;100.00;100308.05;1714714;82;20998;-43
2021/06/22 03:03:02;;;;;;;52.62;11.68;;;;;;;21.71;100.00;100312.63;1710139;82;20956;-45
2021/06/22 03:05:29;;;;;;;43.95;11.75;;;;;;;21.69;100.00;100314.66;1714280;82;20985;-45
2021/06/22 03:07:56;;;;;;;47.03;13.40;;;;;;;21.70;100.00;100317.73;1714824;82;21356;-45
2021/06/22 03:10:24;;;;;;;34.35;10.48;;;;;;;21.69;100.00;100323.64;1713063;82;21094;-43
2021/06/22 03:12:52;;;;;;;51.00;11.48;;;;;;;21.71;100.00;100325.68;1625281;85;21416;-42
2021/06/22 03:15:25;;;;;;;45.92;12.40;;;;;;;21.74;100.00;100327.21;1665685;85;20979;-44
2021/06/22 03:17:52;;;;;;;55.88;12.37;;;;;;;21.72;100.00;100323.33;1643867;86;21011;-43
2021/06/22 03:20:22;;;;;;;42.03;10.95;;;;;;;21.69;100.00;100326.34;1707838;82;20991;-44
2021/06/22 03:22:49;;;;;;;43.83;10.78;;;;;;;21.65;100.00;100330.42;1717782;82;20939;-44
2021/06/22 03:25:16;;;;;;;33.70;10.65;;;;;;;21.61;100.00;100339.89;1710886;82;20964;-44
2021/06/22 03:27:45;;;;;;;55.08;12.70;;;;;;;21.61;100.00;100350.23;1714483;82;21769;-43
2021/06/22 03:30:17;;;;;;;50.52;12.40;;;;;;;21.65;100.00;100342.63;1705473;82;20988;-41
2021/06/22 03:32:46;;;;;;;41.42;9.80;;;;;;;21.68;100.00;100347.72;1718195;82;20920;-46
2021/06/22 03:35:14;;;;;;;55.92;13.58;;;;;;;21.72;100.00;100349.10;1709137;82;20941;-45
2021/06/22 03:37:40;;;;;;;46.68;14.43;;;;;;;21.79;100.00;100346.56;1709339;82;21534;-41
2021/06/22 03:40:10;;;;;;;52.62;12.33;;;;;;;21.84;100.00;100342.84;1681737;82;21388;-41
2021/06/22 03:42:38;;;;;;;47.27;10.48;;;;;;;21.90;100.00;100341.31;1684900;82;20988;-46
2021/06/22 03:45:07;;;;;;;43.90;13.22;;;;;;;21.95;100.00;100354.75;1715316;83;20987;-45
2021/06/22 03:47:35;;;;;;;49.45;12.20;;;;;;;21.98;100.00;100354.93;1709958;82;21466;-45
2021/06/22 03:50:04;;;;;;;47.95;12.95;;;;;;;22.04;100.00;100363.75;1708042;82;20947;-44
2021/06/22 03:52:31;;;;;;;40.92;11.33;;;;;;;22.10;100.00;100359.02;1709748;83;21519;-46
2021/06/22 03:54:58;;;;;;;47.08;12.47;;;;;;;22.16;100.00;100361.05;1710128;82;20964;-43
2021/06/22 03:57:24;;;;;;;44.23;11.15;;;;;;;22.22;100.00;100362.27;1711630;82;21062;-44
2021/06/22 04:00:06;;;;;;;38.28;12.25;;;;;;;22.27;100.00;100353.62;1671658;83;20979;-40
2021/06/22 04:02:35;;;;;;;47.78;10.20;;;;;;;22.32;100.00;100344.47;1674702;83;21048;-42
2021/06/22 04:05:02;;;;;;;48.45;11.63;;;;;;;22.31;100.00;100345.50;1645600;85;21012;-41
2021/06/22 04:07:33;;;;;;;41.83;12.07;;;;;;;22.30;100.00;100348.73;1666082;84;21013;-41
2021/06/22 04:10:01;;;;;;;43.80;11.57;;;;;;;22.34;100.00;100343.80;1670100;84;21000;-39
2021/06/22 04:12:28;;;;;;;37.03;8.75;;;;;;;22.37;100.00;100343.45;1652912;84;21033;-40
2021/06/22 04:14:55;;;;;;;38.70;10.10;;;;;;;22.43;100.00;100334.12;1666729;83;21513;-42
2021/06/22 04:17:23;;;;;;;41.42;9.63;;;;;;;22.47;100.00;100327.31;1672244;83;21140;-42
2021/06/22 04:19:51;;;;;;;44.25;11.10;;;;;;;22.52;100.00;100324.09;1644269;84;21038;-42
2021/06/22 04:22:18;;;;;;;27.62;8.55;;;;;;;22.55;100.00;100322.37;1673501;83;21035;-43
2021/06/22 04:24:46;;;;;;;40.35;9.75;;;;;;;22.58;100.00;100331.57;1672297;83;21031;-43
2021/06/22 04:27:13;;;;;;;39.65;9.53;;;;;;;22.60;100.00;100321.39;1674880;83;21029;-42
2021/06/22 04:29:40;;;;;;;34.33;9.45;;;;;;;22.64;100.00;100326.80;1674833;83;21616;-42
2021/06/22 04:32:07;;;;;;;32.80;8.15;;;;;;;22.67;100.00;100331.04;1670076;83;21012;-45
2021/06/22 04:34:34;;;;;;;25.97;7.08;;;;;;;22.67;100.00;100333.23;1670800;83;21324;-44
2021/06/22 04:37:01;;;;;;;25.92;8.65;;;;;;;22.67;100.00;100322.89;1709502;82;20988;-44
2021/06/22 04:39:34;;;;;;;23.77;7.03;;;;;;;22.68;100.00;100317.81;1713319;82;21503;-44
2021/06/22 04:42:05;;;;;;;30.90;8.55;;;;;;;22.69;100.00;100318.98;1709984;82;21001;-44
2021/06/22 04:44:34;;;;;;;26.67;6.80;;;;;;;22.73;100.00;100302.32;1683000;83;21027;-45
2021/06/22 04:47:04;;;;;;;27.65;6.97;;;;;;;22.73;100.00;100302.32;1714465;82;21485;-45
2021/06/22 04:49:31;;;;;;;30.12;7.62;;;;;;;22.75;100.00;100299.77;1713953;82;21425;-45
2021/06/22 04:52:05;;;;;;;35.95;9.70;;;;;;;22.77;100.00;100295.02;1717501;82;21059;-42
2021/06/22 04:54:41;;;;;;;24.02;6.45;;;;;;;22.79;100.00;100290.77;1650262;85;21079;-42
2021/06/22 04:57:08;;;;;;;25.97;7.42;;;;;;;22.83;100.00;100294.82;1650767;84;21094;-43
2021/06/22 04:59:38;;;;;;;16.48;5.45;;;;;;;22.87;100.00;100292.95;1653021;85;20974;-47
2021/06/22 05:02:08;;;;;;;35.13;7.80;;;;;;;22.93;100.00;100298.70;1651886;85;21000;-46
2021/06/22 05:04:36;;;;;;;19.62;4.25;;;;;;;22.96;100.00;100292.43;1658579;85;20984;-44
2021/06/22 05:07:04;;;;;;;15.35;6.33;;;;;;;22.99;99.15;100298.91;1626254;86;21447;-44
2021/06/22 05:09:31;;;;;;;13.85;5.30;;;;;;;23.05;99.77;100306.86;1598281;88;21562;-43
2021/06/22 05:11:58;;;;;;;17.37;4.78;;;;;;;23.12;99.59;100311.94;1600639;88;21027;-42
2021/06/22 05:14:26;;;;;;;17.90;4.90;;;;;;;23.18;99.87;100312.59;1627355;86;20963;-42
2021/06/22 05:16:52;;;;;;;26.85;4.95;;;;;;;23.26;99.62;100317.17;1604840;88;21598;-42
2021/06/22 05:19:19;;;;;;;16.45;4.53;;;;;;;23.32;98.62;100323.26;1605187;88;20984;-49
2021/06/22 05:21:47;;;;;;;12.28;4.55;;;;;;;23.39;98.32;100319.33;1609427;87;21011;-45
2021/06/22 05:24:15;;;;;;;8.15;2.90;;;;;;;23.47;98.65;100330.17;1609760;87;21027;-45
2021/06/22 05:26:42;;;;;;;9.10;3.45;;;;;;;23.53;96.87;100326.72;1612338;87;21595;-44
2021/06/22 05:29:11;;;;;;;14.55;3.65;;;;;;;23.59;95.89;100321.95;1610703;87;21602;-43
2021/06/22 05:31:37;;;;;;;13.18;3.05;;;;;;;23.66;95.24;100322.94;1624711;86;21379;-40
2021/06/22 05:34:04;;;;;;;7.85;4.25;;;;;;;23.72;95.74;100320.88;1667534;84;21378;-40
2021/06/22 05:36:31;;;;;;;8.75;3.40;;;;;;;23.77;92.75;100320.34;1673204;83;20984;-40
2021/06/22 05:38:57;;;;;;;12.88;3.90;;;;;;;23.82;91.23;100308.92;1665912;84;20968;-42
2021/06/22 05:41:24;;;;;;;16.95;3.75;;;;;;;23.88;88.22;100306.83;1709401;83;21455;-40
2021/06/22 05:43:51;;;;;;;11.73;3.30;;;;;;;23.94;88.09;100304.77;1709122;82;20952;-41
2021/06/22 05:46:17;;;;;;;10.15;2.98;;;;;;;23.99;86.70;100292.81;1713023;82;21027;-40
2021/06/22 05:48:44;;;;;;;9.80;4.05;;;;;;;24.06;86.31;100284.74;1706758;82;21414;-41
2021/06/22 05:51:10;;;;;;;7.25;2.80;;;;;;;24.10;86.90;100288.81;1717774;82;20992;-40
2021/06/22 05:53:37;;;;;;;13.60;2.92;;;;;;;24.14;87.06;100295.08;1710008;82;20956;-40
2021/06/22 05:56:04;;;;;;;12.55;3.50;;;;;;;24.19;85.57;100296.73;1714370;82;21554;-40
2021/06/22 05:58:30;;;;;;;8.40;3.67;;;;;;;24.24;84.66;100294.83;1711115;82;21015;-40
2021/06/22 06:00:57;;;;;;;13.43;3.45;;;;;;;24.26;83.79;100291.38;1714075;82;21020;-40
2021/06/22 06:03:23;;;;;;;12.47;2.60;;;;;;;24.30;83.35;100304.14;1707983;82;21052;-41
2021/06/22 06:05:50;;;;;;;11.45;2.98;;;;;;;24.33;83.75;100305.97;1709151;82;20948;-40
2021/06/22 06:09:04;;;;;;;12.65;2.52;;;;;;;24.37;85.18;100307.83;1713015;82;20977;-40
2021/06/22 06:11:34;;;;;;;10.43;3.37;;;;;;;24.37;83.40;100301.86;1581318;89;21023;-40
2021/06/22 06:14:01;;;;;;;8.98;2.12;;;;;;;24.43;81.94;100285.80;1588347;89;20983;-41
2021/06/22 06:16:30;;;;;;;9.28;3.12;;;;;;;24.45;81.79;100276.45;1565687;89;21758;-40
2021/06/22 06:18:57;;;;;;;8.20;2.55;;;;;;;24.49;82.06;100264.13;1587840;89;20999;-43
2021/06/22 06:21:24;;;;;;;9.58;2.95;;;;;;;24.53;82.48;100264.63;1584837;89;21011;-43
2021/06/22 06:23:55;;;;;;;13.43;2.70;;;;;;;24.56;80.22;100266.97;1584595;89;21087;-43
2021/06/22 06:26:21;;;;;;;6.97;2.25;;;;;;;24.59;79.02;100259.28;1586108;89;21760;-42
2021/06/22 06:28:51;;;;;;;12.73;2.98;;;;;;;24.61;77.77;100257.19;1587236;89;21027;-43
2021/06/22 06:31:16;;;;;;;13.13;2.95;;;;;;;24.65;78.61;100268.59;1585817;89;20984;-42
2021/06/22 06:33:43;;;;;;;17.02;3.50;;;;;;;24.69;78.16;100272.61;1584534;89;20998;-43
2021/06/22 06:36:10;;;;;;;9.13;2.58;;;;;;;24.72;77.34;100273.63;1582020;89;21023;-44
2021/06/22 06:38:37;;;;;;;11.55;3.70;;;;;;;24.76;77.38;100292.64;1582863;89;21040;-44
2021/06/22 06:41:04;;;;;;;9.10;2.70;;;;;;;24.80;76.53;100305.41;1578441;89;21495;-42
2021/06/22 06:43:31;;;;;;;8.98;2.60;;;;;;;24.84;77.26;100304.81;1580592;89;21038;-43
2021/06/22 06:45:57;;;;;;;6.08;2.47;;;;;;;24.88;76.94;100316.21;1581501;89;21018;-43
2021/06/22 06:48:25;;;;;;;9.48;2.62;;;;;;;24.92;79.28;100329.81;1675590;82;20971;-43
2021/06/22 06:50:54;;;;;;;10.38;3.25;;;;;;;24.96;77.18;100310.66;1710301;82;20986;-44
2021/06/22 06:53:24;;;;;;;11.80;3.35;;;;;;;25.02;76.74;100315.88;1715095;82;21003;-43
2021/06/22 06:55:51;;;;;;;13.75;3.30;;;;;;;25.08;77.15;100317.87;1715526;82;21028;-46
2021/06/22 06:58:18;;;;;;;15.28;4.03;;;;;;;25.11;75.16;100316.13;1712514;82;21035;-45
2021/06/22 07:00:46;;;;;;;8.28;2.55;;;;;;;25.14;74.98;100321.19;1712336;82;20991;-44
2021/06/22 07:03:13;;;;;;;10.98;2.72;;;;;;;25.19;74.48;100326.12;1716349;82;20948;-44
2021/06/22 07:05:39;;;;;;;5.92;2.37;;;;;;;25.20;75.77;100321.85;1715110;82;21016;-42
2021/06/22 07:08:07;;;;;;;17.30;3.85;;;;;;;25.24;75.43;100319.58;1719275;82;20948;-43
2021/06/22 07:10:33;;;;;;;16.75;4.08;;;;;;;25.24;75.00;100314.96;1714372;82;21006;-42
2021/06/22 07:13:04;;;;;;;13.35;3.05;;;;;;;25.28;75.68;100315.97;1718515;83;21471;-44
2021/06/22 07:15:29;;;;;;;19.07;3.73;;;;;;;25.30;77.49;100323.42;1716882;82;20972;-41
2021/06/22 07:17:56;;;;;;;8.33;3.27;;;;;;;25.34;75.19;100305.13;1717287;82;20995;-44
2021/06/22 07:20:23;;;;;;;19.17;3.77;;;;;;;25.40;72.53;100313.06;1716189;82;21984;-43
2021/06/22 07:22:51;;;;;;;16.45;3.45;;;;;;;25.43;72.09;100306.72;1713566;82;20990;-44
2021/06/22 07:25:20;;;;;;;14.55;3.77;;;;;;;25.51;71.82;100307.66;1711091;82;20971;-43
2021/06/22 07:27:46;;;;;;;14.40;6.53;;;;;;;25.56;70.39;100309.30;1712208;82;21039;-44
2021/06/22 07:30:16;;;;;;;14.58;4.10;;;;;;;25.61;72.52;100305.47;1715117;82;20999;-43
2021/06/22 07:36:12;;;;;;;16.03;3.57;;;;;;;25.72;69.19;100298.66;1418362;97;21144;-41
2021/06/22 07:38:38;;;;;;;11.57;2.72;;;;;;;25.79;70.21;100299.05;1415533;99;21072;-40
2021/06/22 07:41:06;;;;;;;18.98;3.37;;;;;;;25.84;72.10;100299.31;1416690;99;21086;-42
2021/06/22 07:43:34;;;;;;;28.40;4.40;;;;;;;25.89;71.57;100304.23;1416143;99;21102;-43
2021/06/22 07:46:01;;;;;;;15.60;3.72;;;;;;;25.92;70.29;100300.27;1414049;99;21552;-42
2021/06/22 07:48:27;;;;;;;15.90;4.15;;;;;;;25.97;69.83;100297.27;1413034;99;21083;-41
2021/06/22 07:50:55;;;;;;;16.60;5.17;;;;;;;26.00;67.76;100292.78;1415663;99;22014;-43
2021/06/22 07:53:21;;;;;;;23.73;4.50;;;;;;;26.05;66.88;100284.84;1411024;99;21032;-42
2021/06/22 07:55:48;;;;;;;17.35;4.28;;;;;;;26.10;69.24;100282.37;1416577;99;21074;-43
2021/06/22 07:58:15;;;;;;;16.55;4.00;;;;;;;26.15;69.80;100285.05;1416630;99;21227;-42
2021/06/22 08:00:49;;;;;;;22.62;3.85;;;;;;;26.19;69.84;100291.30;1416635;99;21039;-43
2021/06/22 08:03:19;;;;;;;14.95;4.55;;;;;;;26.25;68.47;100293.23;1419140;99;21085;-43
2021/06/22 08:05:49;;;;;;;29.90;5.55;;;;;;;26.28;68.07;100303.79;1414093;99;21113;-43
2021/06/22 08:08:17;;;;;;;30.68;6.33;;;;;;;26.32;70.82;100308.33;1419643;99;21168;-42
2021/06/22 08:10:48;;;;;;;20.32;5.33;;;;;;;26.33;69.45;100314.10;1419292;99;21188;-43
2021/06/22 08:13:14;;;;;;;21.62;5.22;;;;;;;26.33;67.98;100313.61;1612739;82;21543;-41
2021/06/22 08:15:42;;;;;;;22.95;4.95;;;;;;;26.34;65.48;100319.91;1715431;82;20960;-40
2021/06/22 08:21:53;;;;;;;36.55;7.45;;;;;;;26.36;67.49;100316.47;1606015;87;21045;-41
2021/06/22 08:24:31;;;;;;;28.07;6.00;;;;;;;26.40;67.77;100305.97;1604623;87;21016;-47
2021/06/22 08:27:18;;;;;;;21.80;5.33;;;;;;;26.43;70.01;100309.67;1606292;87;21075;-43
2021/06/22 08:33:46;;;;;;;27.27;6.60;;;;;;;26.52;67.11;100298.44;1558581;90;21827;-46
2021/06/22 08:36:25;;;;;;;29.25;6.03;;;;;;;26.60;68.42;100303.44;1399145;101;21132;-42
2021/06/22 08:38:53;;;;;;;31.25;7.10;;;;;;;26.67;69.03;100311.17;1400520;101;21150;-42
2021/06/22 08:41:21;;;;;;;26.48;6.30;;;;;;;26.71;68.78;100306.48;1400043;101;21555;-44
2021/06/22 08:43:50;;;;;;;33.08;6.53;;;;;;;26.75;68.42;100309.11;1397349;101;21109;-45
2021/06/22 08:46:17;;;;;;;41.00;8.50;;;;;;;26.83;67.29;100307.28;1398653;101;21070;-44
2021/06/22 08:48:45;;;;;;;33.67;8.23;;;;;;;26.87;64.83;100306.68;1398084;101;21117;-46
2021/06/22 08:51:13;;;;;;;43.25;10.45;;;;;;;26.93;64.43;100306.39;1400900;101;21563;-47
2021/06/22 08:53:41;;;;;;;25.60;8.08;;;;;;;27.00;66.34;100311.39;1401639;101;21125;-43
2021/06/22 08:56:11;;;;;;;45.83;10.53;;;;;;;27.05;64.60;100307.53;1400594;101;21062;-44
2021/06/22 08:58:38;;;;;;;41.30;9.75;;;;;;;27.11;67.19;100303.97;1382489;101;21648;-46
2021/06/22 09:01:05;;;;;;;53.17;9.80;;;;;;;27.18;66.94;100304.05;1363265;104;21102;-44
2021/06/22 09:03:32;;;;;;;48.73;11.08;;;;;;;27.23;63.17;100295.23;1363862;104;21113;-48
2021/06/22 09:05:59;;;;;;;49.95;10.60;;;;;;;27.29;62.21;100295.28;1369638;102;21095;-41
2021/06/22 09:08:33;;;;;;;41.02;10.58;;;;;;;27.33;62.15;100292.44;1382543;102;21153;-43
2021/06/22 09:11:09;;;;;;;48.87;9.50;;;;;;;27.38;60.20;100294.03;1472515;94;21110;-43
2021/06/22 09:13:36;;;;;;;44.75;12.33;;;;;;;27.44;61.80;100294.27;1513063;92;21066;-42
2021/06/22 09:16:04;;;;;;;54.77;12.20;;;;;;;27.51;61.39;100295.98;1525620;92;21004;-43
2021/06/22 09:18:40;;;;;;;53.35;13.40;;;;;;;27.58;61.31;100298.22;1557120;88;21027;-44
2021/06/22 09:21:24;;;;;;;75.15;12.63;;;;;;;27.64;61.46;100293.81;1594747;88;21026;-48
2021/06/22 09:23:53;;;;;;;59.15;11.63;;;;;;;27.72;59.54;100293.64;1596693;88;21016;-46
2021/06/22 09:26:25;;;;;;;58.10;11.55;;;;;;;27.79;58.23;100295.02;1596810;89;20999;-43
2021/06/22 09:28:55;;;;;;;65.52;14.00;;;;;;;27.85;57.88;100287.39;1591962;88;21007;-46
2021/06/22 09:31:22;;;;;;;56.77;12.25;;;;;;;27.90;58.65;100294.45;1596487;88;21533;-46
2021/06/22 09:33:53;;;;;;;65.50;15.00;;;;;;;27.95;58.55;100296.58;1593637;88;21014;-46
2021/06/22 09:36:28;;;;;;;52.17;14.00;;;;;;;27.98;55.22;100294.25;1592674;88;21433;-45
2021/06/22 09:39:07;;;;;;;71.60;16.97;;;;;;;28.03;53.04;100297.20;1617657;82;20972;-47
2021/06/22 09:41:40;;;;;;;82.95;16.85;;;;;;;28.09;54.86;100287.84;1706510;82;20987;-45
2021/06/22 09:44:15;;;;;;;71.97;15.68;;;;;;;28.14;54.07;100294.37;1709014;82;20980;-47
2021/06/22 09:46:54;;;;;;;76.60;16.77;;;;;;;28.20;53.60;100294.09;1707656;82;20956;-46
2021/06/22 09:49:30;;;;;;;65.08;15.78;;;;;;;28.25;54.64;100281.97;1710439;82;20932;-43
2021/06/22 09:52:10;;;;;;;52.43;13.10;;;;;;;28.30;51.92;100297.75;1711082;82;20965;-41
2021/06/22 09:54:49;;;;;;;53.98;13.05;;;;;;;28.35;52.50;100284.26;1712309;82;20934;-45
2021/06/22 09:57:19;;;;;;;67.32;14.45;;;;;;;28.39;51.80;100282.80;1694219;82;21723;-41
2021/06/22 10:00:05;;;;;;;71.28;13.18;;;;;;;28.43;55.08;100283.54;1703565;82;20937;-45
2021/06/22 10:02:54;;;;;;;54.63;11.63;;;;;;;28.48;51.31;100287.05;1704640;82;20995;-44
2021/06/22 10:05:21;;;;;;;57.75;12.55;;;;;;;28.54;48.24;100286.72;1706684;82;20983;-45
2021/06/22 10:08:00;;;;;;;53.05;13.35;;;;;;;28.59;50.28;100277.33;1711594;82;21447;-43
2021/06/22 10:10:38;;;;;;;72.35;15.28;;;;;;;28.62;48.57;100275.00;1710769;82;21085;-45
2021/06/22 10:13:06;;;;;;;62.47;11.40;;;;;;;28.67;47.09;100271.09;1709965;82;21311;-41
2021/06/22 10:15:32;;;;;;;73.17;16.45;;;;;;;28.72;44.77;100273.73;1707120;82;20976;-40
2021/06/22 10:17:59;;;;;;;55.17;13.80;;;;;;;28.75;44.06;100278.78;1706558;82;21038;-40
2021/06/22 10:20:26;;;;;;;68.57;14.85;;;;;;;28.77;42.89;100272.55;1653558;86;20984;-44
2021/06/22 10:22:53;;;;;;;48.73;12.55;;;;;;;28.79;43.30;100259.48;1708777;82;20967;-44
2021/06/22 10:25:22;;;;;;;55.85;14.95;;;;;;;28.81;42.43;100264.23;1639947;85;21525;-45
2021/06/22 10:27:53;;;;;;;67.47;14.60;;;;;;;28.86;43.68;100263.05;1632602;85;21019;-45
2021/06/22 10:30:23;;;;;;;54.85;11.88;;;;;;;28.90;45.10;100267.03;1635576;85;20999;-42
2021/06/22 10:32:50;;;;;;;58.75;12.85;;;;;;;28.95;45.32;100261.74;1668005;83;21027;-44
2021/06/22 10:35:17;;;;;;;80.30;16.12;;;;;;;28.98;45.74;100259.09;1706262;82;20948;-44
2021/06/22 10:38:21;;;;;;;64.55;14.53;;;;;;;29.04;45.09;100262.37;1716454;83;21459;-44
2021/06/22 10:41:24;;;;;;;62.78;13.58;;;;;;;29.08;43.83;100261.75;1455473;97;21163;-44
2021/06/22 10:43:53;;;;;;;59.63;13.70;;;;;;;29.15;44.31;100269.11;1434374;98;21084;-45
2021/06/22 10:46:21;;;;;;;58.48;14.00;;;;;;;29.19;45.45;100263.52;1416887;98;21127;-45
2021/06/22 10:48:49;;;;;;;64.17;15.05;;;;;;;29.22;45.59;100262.53;1435746;98;21115;-45
2021/06/22 10:51:41;;;;;;;68.78;15.23;;;;;;;29.27;45.38;100262.72;1433990;98;21085;-44
2021/06/22 10:54:08;;;;;;;56.25;13.28;;;;;;;29.32;45.53;100271.69;1436191;98;21073;-46
2021/06/22 10:56:34;;;;;;;69.12;14.40;;;;;;;29.37;45.96;100269.12;1436762;98;21069;-44
2021/06/22 10:59:20;;;;;;;68.17;15.65;;;;;;;29.41;44.32;100263.52;1434402;98;21065;-45
2021/06/22 11:01:55;;;;;;;70.90;16.42;;;;;;;29.45;44.30;100267.50;1436247;98;21102;-45
2021/06/22 11:04:23;;;;;;;65.75;16.57;;;;;;;29.49;45.44;100259.15;1436914;98;21625;-45
2021/06/22 11:07:09;;;;;;;72.58;17.85;;;;;;;29.54;43.93;100259.86;1436727;98;21070;-45
2021/06/22 11:09:36;;;;;;;87.88;18.07;;;;;;;29.57;42.61;100258.59;1436473;98;21601;-45
2021/06/22 11:12:23;;;;;;;74.35;17.62;;;;;;;29.60;39.85;100247.98;1435159;98;21123;-46
2021/06/22 11:15:06;;;;;;;85.85;19.00;;;;;;;29.64;40.30;100254.73;1458074;95;21010;-45
2021/06/22 11:17:49;;;;;;;81.25;17.98;;;;;;;29.68;41.76;100262.02;1477739;95;21049;-47
2021/06/22 11:20:17;;;;;;;80.12;20.02;;;;;;;29.71;40.35;100262.45;1468123;96;21018;-49
2021/06/22 11:23:05;;;;;;;84.65;18.37;;;;;;;29.73;41.21;100255.34;1474148;96;21050;-44
2021/06/22 11:25:55;;;;;;;90.47;19.92;;;;;;;29.73;40.09;100258.92;1468408;96;21086;-50
2021/06/22 11:28:23;;;;;;;92.15;18.80;;;;;;;29.79;40.48;100263.22;1435555;98;21128;-45
2021/06/22 11:30:59;;;;;;;65.40;17.30;;;;;;;29.81;40.40;100261.97;1461764;94;21022;-46
2021/06/22 11:37:45;;;;;;;89.10;21.93;;;;;;;29.86;41.35;100263.52;1526014;91;21635;-47